createdAt,value
2018-11-10T00:01:18.955Z,28.79
2018-11-10T00:03:54.432Z,28.80
2018-11-10T00:06:30.238Z,28.79
2018-11-10T00:09:08.040Z,28.78
2018-11-10T00:11:44.075Z,28.77
2018-11-10T00:14:52.883Z,28.74
2018-11-10T00:17:29.154Z,28.75
2018-11-10T00:20:05.507Z,28.77
2018-11-10T00:22:43.109Z,28.76
2018-11-10T00:25:18.842Z,28.75
2018-11-10T00:27:54.542Z,28.76
2018-11-10T00:30:31.031Z,28.77
2018-11-10T00:34:05.511Z,28.73
2018-11-10T00:36:41.261Z,28.74
2018-11-10T00:41:58.280Z,28.65
2018-11-10T00:44:34.548Z,28.70
2018-11-10T00:47:10.692Z,28.69
2018-11-10T00:54:32.852Z,28.72
2018-11-10T00:57:08.741Z,28.71
2018-11-10T00:59:45.873Z,28.69
2018-11-10T01:02:21.693Z,28.70
2018-11-10T01:04:57.738Z,28.70
2018-11-10T01:07:34.229Z,28.69
2018-11-10T01:10:10.766Z,28.69
2018-11-10T01:12:46.502Z,28.70
2018-11-10T01:15:23.526Z,28.69
2018-11-10T01:17:59.524Z,28.70
2018-11-10T01:20:35.697Z,28.69
2018-11-10T01:23:11.818Z,28.70
2018-11-10T01:25:47.526Z,28.69
2018-11-10T01:28:23.240Z,28.63
2018-11-10T01:30:58.755Z,28.64
2018-11-10T01:33:34.342Z,28.66
2018-11-10T01:36:10.202Z,28.66
2018-11-10T01:38:46.159Z,28.58
2018-11-10T01:41:22.531Z,28.38
2018-11-10T01:43:58.526Z,28.46
2018-11-10T01:46:40.533Z,28.50
2018-11-10T01:49:17.300Z,28.53
2018-11-10T01:51:53.184Z,28.55
2018-11-10T01:54:29.241Z,28.55
2018-11-10T01:57:05.204Z,28.57
2018-11-10T01:59:40.950Z,28.56
2018-11-10T02:02:16.505Z,28.57
2018-11-10T02:04:51.911Z,28.56
2018-11-10T02:07:27.794Z,28.58
2018-11-10T02:10:04.714Z,28.57
2018-11-10T02:12:40.524Z,28.57
2018-11-10T02:15:19.661Z,28.57
2018-11-10T02:17:56.198Z,28.56
2018-11-10T02:20:32.272Z,28.57
2018-11-10T02:23:08.394Z,28.57
2018-11-10T02:25:44.271Z,28.56
2018-11-10T02:28:20.469Z,28.56
2018-11-10T02:31:58.279Z,28.50
2018-11-10T02:34:36.093Z,28.55
2018-11-10T02:37:12.433Z,28.56
2018-11-10T02:39:49.563Z,28.57
2018-11-10T02:42:25.579Z,28.57
2018-11-10T02:45:02.555Z,28.58
2018-11-10T02:47:38.400Z,28.57
2018-11-10T02:50:15.381Z,28.57
2018-11-10T02:55:37.332Z,28.55
2018-11-10T02:58:13.263Z,28.54
2018-11-10T03:00:49.735Z,28.54
2018-11-10T03:03:25.897Z,28.54
2018-11-10T03:06:02.679Z,28.50
2018-11-10T03:08:38.567Z,28.05
2018-11-10T03:11:15.426Z,27.85
2018-11-10T03:13:51.318Z,27.78
2018-11-10T03:16:27.491Z,27.71
2018-11-10T03:19:03.769Z,27.68
2018-11-10T03:21:39.731Z,27.69
2018-11-10T03:24:16.020Z,27.68
2018-11-10T03:29:20.280Z,25.25
2018-11-10T03:31:56.571Z,23.64
2018-11-10T03:34:32.779Z,22.81
2018-11-10T03:37:08.988Z,22.39
2018-11-10T03:39:45.268Z,22.18
2018-11-10T03:42:21.376Z,21.84
2018-11-10T03:44:57.786Z,21.60
2018-11-10T03:47:34.046Z,21.53
2018-11-10T03:50:11.441Z,21.50
2018-11-10T03:52:47.390Z,21.38
2018-11-10T03:55:23.133Z,21.04
2018-11-10T03:59:02.931Z,24.08
2018-11-10T04:01:38.498Z,25.47
2018-11-10T04:04:14.322Z,26.00
2018-11-10T04:06:49.915Z,26.27
2018-11-10T04:09:27.057Z,26.48
2018-11-10T04:12:03.272Z,26.50
2018-11-10T04:14:39.761Z,26.65
2018-11-10T04:17:15.747Z,26.85
2018-11-10T04:19:51.462Z,27.01
2018-11-10T04:22:32.237Z,27.12
2018-11-10T04:25:07.191Z,27.21
2018-11-10T04:27:42.811Z,27.31
2018-11-10T04:30:18.703Z,27.38
2018-11-10T04:32:54.303Z,27.44
2018-11-10T04:35:30.307Z,27.53
2018-11-10T04:38:06.516Z,27.59
2018-11-10T04:40:42.061Z,27.64
2018-11-10T04:43:17.913Z,27.71
2018-11-10T04:45:54.942Z,27.79
2018-11-10T04:48:30.738Z,27.89
2018-11-10T04:51:06.312Z,27.93
2018-11-10T04:53:46.242Z,28.02
2018-11-10T04:56:22.334Z,27.68
2018-11-10T05:01:54.713Z,27.93
2018-11-10T05:04:31.842Z,28.00
2018-11-10T05:07:08.076Z,28.04
2018-11-10T05:09:43.947Z,28.07
2018-11-10T05:12:19.937Z,28.11
2018-11-10T05:14:56.125Z,28.13
2018-11-10T05:17:31.762Z,28.16
2018-11-10T05:20:07.494Z,28.17
2018-11-10T05:24:57.069Z,28.20
2018-11-10T05:27:32.994Z,28.23
2018-11-10T05:30:09.473Z,28.17
2018-11-10T05:32:44.896Z,28.17
2018-11-10T05:35:21.082Z,28.20
2018-11-10T05:37:58.107Z,28.22
2018-11-10T05:40:34.208Z,28.21
2018-11-10T05:43:10.123Z,28.22
2018-11-10T05:45:45.833Z,28.22
2018-11-10T05:48:22.511Z,28.22
2018-11-10T05:50:59.022Z,28.24
2018-11-10T05:53:35.090Z,28.25
2018-11-10T05:56:12.271Z,28.26
2018-11-10T05:58:49.265Z,28.27
2018-11-10T06:01:24.984Z,28.29
2018-11-10T06:04:01.022Z,28.28
2018-11-10T06:06:37.104Z,28.30
2018-11-10T06:09:14.390Z,28.31
2018-11-10T06:11:51.218Z,28.31
2018-11-10T06:14:27.272Z,28.32
2018-11-10T06:17:05.099Z,28.31
2018-11-10T06:19:41.341Z,28.32
2018-11-10T06:22:17.150Z,28.33
2018-11-10T06:24:53.498Z,28.32
2018-11-10T06:27:30.314Z,28.31
2018-11-10T06:30:06.918Z,28.30
2018-11-10T06:32:42.726Z,28.30
2018-11-10T06:35:19.270Z,28.30
2018-11-10T06:37:55.022Z,28.30
2018-11-10T06:40:32.275Z,28.31
2018-11-10T06:43:10.142Z,28.28
2018-11-10T06:45:46.532Z,28.33
2018-11-10T06:48:22.566Z,28.32
2018-11-10T06:50:58.487Z,28.32
2018-11-10T06:53:34.103Z,28.32
2018-11-10T06:56:09.717Z,28.31
2018-11-10T06:58:45.977Z,28.31
2018-11-10T07:01:21.386Z,28.30
2018-11-10T07:03:58.899Z,28.29
2018-11-10T07:06:36.114Z,28.29
2018-11-10T07:09:14.966Z,28.27
2018-11-10T07:11:51.439Z,28.25
2018-11-10T07:14:27.340Z,28.22
2018-11-10T07:17:04.462Z,28.23
2018-11-10T07:19:40.235Z,28.20
2018-11-10T07:22:16.438Z,28.17
2018-11-10T07:24:50.982Z,28.17
2018-11-10T07:27:28.565Z,28.16
2018-11-10T07:30:50.032Z,28.19
2018-11-10T07:33:25.873Z,28.18
2018-11-10T07:36:02.091Z,28.15
2018-11-10T07:38:37.849Z,28.08
2018-11-10T07:41:14.180Z,28.01
2018-11-10T07:43:50.116Z,28.01
2018-11-10T07:46:26.473Z,28.02
2018-11-10T07:49:02.456Z,28.05
2018-11-10T07:52:29.673Z,27.34
2018-11-10T07:55:06.051Z,27.19
2018-11-10T07:57:42.160Z,27.22
2018-11-10T08:00:19.795Z,27.24
2018-11-10T08:02:56.079Z,27.29
2018-11-10T08:07:45.530Z,27.33
2018-11-10T08:10:22.362Z,27.36
2018-11-10T08:12:57.371Z,27.41
2018-11-10T08:15:31.628Z,27.43
2018-11-10T08:18:08.060Z,27.46
2018-11-10T08:20:44.269Z,27.49
2018-11-10T08:23:20.378Z,27.53
2018-11-10T08:25:56.846Z,27.54
2018-11-10T08:28:33.350Z,27.55
2018-11-10T08:31:10.009Z,27.54
2018-11-10T08:33:46.141Z,27.59
2018-11-10T08:36:22.210Z,27.62
2018-11-10T08:38:58.092Z,27.62
2018-11-10T08:41:34.288Z,27.61
2018-11-10T08:44:10.947Z,27.64
2018-11-10T08:46:47.284Z,27.66
2018-11-10T08:49:23.209Z,27.66
2018-11-10T08:51:59.794Z,27.67
2018-11-10T08:54:35.994Z,27.68
2018-11-10T08:57:12.957Z,27.69
2018-11-10T08:59:49.731Z,27.70
2018-11-10T09:02:26.638Z,27.71
2018-11-10T09:05:02.676Z,27.72
2018-11-10T09:07:39.164Z,27.71
2018-11-10T09:10:16.763Z,27.73
2018-11-10T09:12:52.936Z,27.73
2018-11-10T09:15:29.384Z,27.73
2018-11-10T09:18:05.361Z,27.74
2018-11-10T09:20:39.545Z,27.74
2018-11-10T09:23:16.076Z,27.75
2018-11-10T09:25:52.334Z,27.74
2018-11-10T09:28:28.438Z,27.74
2018-11-10T09:31:05.050Z,27.74
2018-11-10T09:33:41.855Z,27.75
2018-11-10T09:36:18.428Z,27.75
2018-11-10T09:38:54.959Z,27.74
2018-11-10T09:41:31.429Z,27.72
2018-11-10T09:44:07.964Z,27.72
2018-11-10T09:46:44.138Z,27.72
2018-11-10T09:49:21.294Z,27.72
2018-11-10T09:51:58.363Z,27.73
2018-11-10T09:54:33.134Z,27.73
2018-11-10T09:57:10.090Z,27.73
2018-11-10T09:59:47.182Z,27.72
2018-11-10T10:02:24.716Z,27.73
2018-11-10T10:05:01.428Z,27.73
2018-11-10T10:07:39.348Z,27.73
2018-11-10T10:10:18.738Z,27.72
2018-11-10T10:12:55.973Z,27.73
2018-11-10T10:15:33.170Z,27.72
2018-11-10T10:18:10.352Z,27.71
2018-11-10T10:20:47.205Z,27.71
2018-11-10T10:23:24.205Z,27.71
2018-11-10T10:26:01.220Z,27.72
2018-11-10T10:28:38.193Z,27.70
2018-11-10T10:31:15.439Z,27.71
2018-11-10T10:33:51.942Z,27.71
2018-11-10T10:36:28.178Z,27.71
2018-11-10T10:39:04.634Z,27.70
2018-11-10T10:41:41.204Z,27.70
2018-11-10T10:44:17.101Z,27.69
2018-11-10T10:46:53.380Z,27.70
2018-11-10T10:49:27.314Z,27.70
2018-11-10T10:52:03.632Z,27.65
2018-11-10T10:54:39.988Z,27.69
2018-11-10T10:57:16.033Z,27.70
2018-11-10T10:59:52.166Z,27.70
2018-11-10T11:05:34.735Z,27.60
2018-11-10T11:08:10.814Z,27.65
2018-11-10T11:10:46.824Z,27.65
2018-11-10T11:13:22.984Z,27.65
2018-11-10T11:15:59.009Z,27.66
2018-11-10T11:18:35.177Z,27.64
2018-11-10T11:21:11.166Z,27.64
2018-11-10T11:23:47.192Z,27.62
2018-11-10T11:26:23.113Z,27.62
2018-11-10T11:28:59.183Z,27.62
2018-11-10T11:31:33.116Z,27.63
2018-11-10T11:34:09.182Z,27.62
2018-11-10T11:36:45.656Z,27.61
2018-11-10T11:39:21.657Z,27.59
2018-11-10T11:41:57.993Z,27.58
2018-11-10T11:44:34.019Z,27.58
2018-11-10T11:47:09.987Z,27.56
2018-11-10T11:49:45.950Z,27.56
2018-11-10T11:52:22.326Z,27.56
2018-11-10T11:54:58.195Z,27.55
2018-11-10T11:57:34.259Z,27.53
2018-11-10T12:00:12.694Z,27.52
2018-11-10T12:02:48.999Z,27.53
2018-11-10T12:05:25.250Z,27.52
2018-11-10T12:07:59.337Z,27.52
2018-11-10T12:10:35.174Z,27.51
2018-11-10T12:13:11.180Z,27.51
2018-11-10T12:15:47.025Z,27.50
2018-11-10T12:18:22.917Z,27.50
2018-11-10T12:20:58.858Z,27.49
2018-11-10T12:23:34.933Z,27.49
2018-11-10T12:26:11.768Z,27.48
2018-11-10T12:28:47.853Z,27.48
2018-11-10T12:31:23.746Z,27.46
2018-11-10T12:33:59.606Z,27.45
2018-11-10T12:36:35.841Z,27.44
2018-11-10T12:39:13.062Z,27.43
2018-11-10T12:41:49.026Z,27.42
2018-11-10T12:44:24.952Z,27.43
2018-11-10T12:47:00.824Z,27.42
2018-11-10T12:49:36.946Z,27.40
2018-11-10T12:52:13.188Z,27.40
2018-11-10T12:54:49.879Z,27.39
2018-11-10T12:57:26.014Z,27.37
2018-11-10T13:00:01.911Z,27.38
2018-11-10T13:02:38.193Z,27.37
2018-11-10T13:05:14.630Z,27.36
2018-11-10T13:07:50.950Z,27.34
2018-11-10T13:10:26.857Z,27.35
2018-11-10T13:13:03.432Z,27.35
2018-11-10T13:15:39.865Z,27.35
2018-11-10T13:18:16.081Z,27.34
2018-11-10T13:20:52.270Z,27.34
2018-11-10T13:23:28.217Z,27.32
2018-11-10T13:26:04.238Z,27.30
2018-11-10T13:28:39.834Z,27.30
2018-11-10T13:31:15.975Z,27.30
2018-11-10T13:33:52.077Z,27.28
2018-11-10T13:36:28.029Z,27.28
2018-11-10T13:39:04.652Z,27.26
2018-11-10T13:41:40.638Z,27.25
2018-11-10T13:44:16.697Z,27.24
2018-11-10T13:46:52.847Z,27.26
2018-11-10T13:49:29.065Z,27.24
2018-11-10T13:52:05.266Z,27.24
2018-11-10T13:54:41.439Z,27.22
2018-11-10T13:57:15.361Z,27.22
2018-11-10T13:59:51.259Z,27.19
2018-11-10T14:05:07.252Z,27.17
2018-11-10T14:07:41.366Z,27.16
2018-11-10T14:10:18.175Z,27.12
2018-11-10T14:12:54.315Z,27.12
2018-11-10T14:15:29.955Z,27.10
2018-11-10T14:18:05.880Z,27.09
2018-11-10T14:20:42.053Z,27.06
2018-11-10T14:23:18.208Z,27.04
2018-11-10T14:25:54.280Z,27.04
2018-11-10T14:28:30.227Z,27.02
2018-11-10T14:31:05.897Z,27.00
2018-11-10T14:33:42.044Z,27.00
2018-11-10T14:36:18.044Z,26.98
2018-11-10T14:38:54.070Z,26.97
2018-11-10T14:41:30.881Z,26.92
2018-11-10T14:44:07.066Z,26.95
2018-11-10T14:46:43.045Z,26.93
2018-11-10T14:49:18.873Z,26.92
2018-11-10T14:51:54.912Z,26.91
2018-11-10T14:54:31.052Z,26.91
2018-11-10T14:57:07.225Z,26.91
2018-11-10T14:59:43.053Z,26.88
2018-11-10T15:02:18.858Z,26.90
2018-11-10T15:04:55.051Z,26.89
2018-11-10T15:07:31.113Z,26.89
2018-11-10T15:10:07.222Z,26.88
2018-11-10T15:12:43.654Z,26.86
2018-11-10T15:15:18.569Z,26.86
2018-11-10T15:17:54.923Z,26.85
2018-11-10T15:20:31.057Z,26.84
2018-11-10T15:23:07.517Z,26.84
2018-11-10T15:25:43.459Z,26.85
2018-11-10T15:28:19.105Z,26.83
2018-11-10T15:30:55.058Z,26.83
2018-11-10T15:33:31.314Z,26.84
2018-11-10T15:36:07.316Z,26.84
2018-11-10T15:38:41.341Z,26.82
2018-11-10T15:41:17.429Z,26.82
2018-11-10T15:43:53.487Z,26.79
2018-11-10T15:46:29.462Z,26.79
2018-11-10T15:49:03.698Z,26.79
2018-11-10T15:51:39.747Z,26.78
2018-11-10T15:54:15.447Z,26.78
2018-11-10T15:56:51.483Z,26.77
2018-11-10T15:59:27.422Z,26.76
2018-11-10T16:02:03.272Z,26.76
2018-11-10T16:04:39.441Z,26.77
2018-11-10T16:07:13.617Z,26.77
2018-11-10T16:09:49.665Z,26.77
2018-11-10T16:12:25.929Z,26.77
2018-11-10T16:15:03.402Z,26.76
2018-11-10T16:17:39.245Z,26.75
2018-11-10T16:20:19.525Z,26.75
2018-11-10T16:22:55.712Z,26.71
2018-11-10T16:25:31.931Z,26.75
2018-11-10T16:28:08.269Z,26.74
2018-11-10T16:30:44.199Z,26.74
2018-11-10T16:33:19.941Z,26.74
2018-11-10T16:35:55.803Z,26.74
2018-11-10T16:38:31.904Z,26.75
2018-11-10T16:41:08.086Z,26.74
2018-11-10T16:43:44.250Z,26.75
2018-11-10T16:46:20.313Z,26.75
2018-11-10T16:48:56.426Z,26.76
2018-11-10T16:51:30.601Z,26.76
2018-11-10T16:54:07.071Z,26.76
2018-11-10T16:56:42.913Z,26.79
2018-11-10T16:59:19.009Z,26.76
2018-11-10T17:01:55.085Z,26.70
2018-11-10T17:04:31.211Z,26.66
2018-11-10T17:07:05.210Z,26.64
2018-11-10T17:09:40.936Z,26.62
2018-11-10T17:12:17.031Z,26.62
2018-11-10T17:17:44.664Z,23.13
2018-11-10T17:20:21.039Z,21.21
2018-11-10T17:22:57.852Z,20.04
2018-11-10T17:25:34.517Z,19.33
2018-11-10T17:28:10.982Z,18.84
2018-11-10T17:30:47.410Z,18.60
2018-11-10T17:33:24.138Z,18.47
2018-11-10T17:36:00.261Z,18.20
2018-11-10T17:42:04.416Z,22.79
2018-11-10T17:44:40.264Z,23.62
2018-11-10T17:47:16.260Z,24.17
2018-11-10T17:49:52.261Z,24.65
2018-11-10T17:52:28.802Z,25.06
2018-11-10T17:55:04.971Z,25.51
2018-11-10T17:57:40.921Z,25.84
2018-11-10T19:21:00.159Z,24.19
2018-11-10T19:23:36.107Z,24.85
2018-11-10T19:26:12.289Z,25.23
2018-11-10T19:28:48.473Z,25.18
2018-11-10T19:31:24.471Z,25.13
2018-11-10T19:34:02.564Z,26.93
2018-11-10T19:36:39.566Z,29.60
2018-11-10T19:39:16.340Z,31.14
2018-11-10T19:42:26.285Z,32.08
2018-11-10T19:45:03.085Z,32.80
2018-11-10T19:47:41.896Z,33.16
2018-11-10T19:50:18.984Z,33.50
2018-11-10T19:52:56.506Z,33.43
2018-11-10T19:55:34.262Z,33.95
2018-11-10T19:58:12.926Z,34.45
2018-11-10T20:00:50.838Z,34.80
2018-11-10T20:03:29.862Z,35.21
2018-11-10T20:06:08.914Z,35.53
2018-11-10T20:08:45.935Z,35.74
2018-11-10T20:13:50.416Z,35.82
2018-11-10T20:16:26.496Z,35.99
2018-11-10T20:19:02.556Z,36.07
2018-11-10T20:21:38.739Z,36.24
2018-11-10T20:24:15.002Z,36.52
2018-11-10T20:26:52.241Z,36.69
2018-11-10T20:29:38.485Z,36.82
2018-11-10T20:32:18.721Z,36.81
2018-11-10T20:34:57.249Z,36.88
2018-11-10T20:37:33.751Z,36.92
2018-11-10T21:14:33.004Z,37.53
2018-11-10T21:19:24.297Z,36.46
2018-11-10T22:51:33.582Z,31.38
2018-11-10T22:54:09.992Z,31.01
2018-11-10T22:56:44.059Z,30.80
2018-11-10T22:59:20.017Z,30.48
2018-11-10T23:01:56.307Z,29.98
2018-11-10T23:04:32.254Z,29.56
2018-11-10T23:07:09.640Z,29.17
2018-11-10T23:09:46.565Z,28.66
2018-11-10T23:12:23.077Z,28.44
2018-11-10T23:15:00.178Z,28.34
2018-11-10T23:17:34.703Z,28.17
2018-11-10T23:20:13.462Z,27.99
2018-11-10T23:22:49.565Z,27.76
2018-11-10T23:27:01.462Z,26.67
2018-11-10T23:29:37.551Z,26.53
2018-11-10T23:32:13.476Z,26.61
2018-11-10T23:34:49.277Z,26.68
2018-11-10T23:37:24.798Z,26.84
2018-11-10T23:40:01.242Z,26.94
2018-11-10T23:42:36.871Z,27.04
2018-11-10T23:45:13.651Z,27.13
2018-11-10T23:47:50.045Z,27.23
2018-11-10T23:50:26.019Z,27.28
2018-11-10T23:53:02.082Z,27.34
2018-11-10T23:55:37.718Z,27.39
2018-11-10T23:58:14.024Z,27.41
